UKWW/VIN METAR and TAF weather

Enter ICAO airport designator
Station Type Date Time Source
UKWW METAR 2021/09/24 07:00 UTC NOAA

UKWW 240700Z 23007MPS 200V260 9999 -SHRA SCT013 BKN024CB 09/08 Q1003 NOSIG


Station Type Date Time Source
UKWW Decoded METAR 2021/09/24 07:00 UTC NOAA

Station name not available
Sep 24, 2021 - 03:00 AM EDT / 2021.09.24 0700 UTC
Wind: from the SW (230 degrees) at 16 MPH (14 KT) (direction variable):0
Visibility: greater than 7 mile(s):0
Sky conditions: mostly cloudy
Weather: light rain showers; Cumulonimbus clouds observed
Temperature: 48 F (9 C)
Dew Point: 46 F (8 C)
Relative Humidity: 93%
Pressure (altimeter): 29.62 in. Hg (1003 hPa)
ob: UKWW 240700Z 23007MPS 200V260 9999 -SHRA SCT013 BKN024CB 09/08 Q1003 NOSIG
cycle: 7

Station Type Date Time Source
UKWW TAF 2010/03/21 10:45 UTC NOAA

TAF UKWW 211045Z 2112/2212 24005G10MPS 9999 SCT020 BKN070
TEMPO 2115/2207 1400 -SHRA BR SCT004 BKN007CB
FM220700 34007G12MPS 9999 SCT015 BKN100 TX11/2112Z TN01/2204Z

Example: see airport list